Time;durP1;ratioP1;P1;durP2;ratioP2;P2;SDS_P1;SDS_P2;PMS_P1;PMS_P2;Temp;Humidity;BMP_temperature;BMP_pressure;BME280_temperature;BME280_humidity;BME280_pressure;Samples;Min_cycle;Max_cycle;Signal;HPM_P1;HPM_P2
2021/12/24 00:01:50;;;;;;;9.07;3.75;;;7.60;99.90;;;7.86;100.00;100020.56;5124339;29;20059;-73
2021/12/24 00:04:24;;;;;;;8.77;3.42;;;7.70;99.90;;;7.96;100.00;100014.00;5148926;23;20588;-85
2021/12/24 00:06:56;;;;;;;6.43;3.17;;;7.90;99.90;;;8.04;100.00;100005.63;5145904;23;20046;-70
2021/12/24 00:09:32;;;;;;;10.65;4.22;;;8.00;99.90;;;8.11;100.00;100009.28;5143878;28;20065;-70
2021/12/24 00:12:12;;;;;;;7.20;3.55;;;8.00;99.90;;;8.14;100.00;100005.06;5145245;28;20051;-70
2021/12/24 00:14:49;;;;;;;6.28;3.00;;;8.10;99.90;;;8.17;100.00;100001.69;5145277;28;20053;-70
2021/12/24 00:17:27;;;;;;;8.45;3.10;;;8.10;99.90;;;8.24;100.00;100003.66;5145386;28;20146;-71
2021/12/24 00:20:26;;;;;;;8.60;3.40;;;8.20;99.90;;;8.26;100.00;99996.78;5145701;28;20051;-71
2021/12/24 00:37:20;;;;;;;9.52;3.47;;;8.40;99.90;;;8.39;100.00;99983.38;5145088;28;20106;-70
2021/12/24 00:40:02;;;;;;;8.63;3.63;;;8.40;99.90;;;8.43;100.00;99963.59;5145562;28;20047;-70
2021/12/24 00:42:34;;;;;;;6.28;3.08;;;8.40;99.90;;;8.41;100.00;99966.16;5145546;28;20055;-70
2021/12/24 00:45:07;;;;;;;7.28;3.33;;;8.40;99.90;;;8.41;100.00;99971.34;5145072;28;20480;-70
2021/12/24 00:47:40;;;;;;;8.25;3.30;;;8.30;99.90;;;8.41;100.00;99973.94;5145102;28;20055;-70
2021/12/24 00:50:16;;;;;;;8.68;4.22;;;8.40;99.90;;;8.43;100.00;99969.66;5144618;28;20057;-70
2021/12/24 00:52:53;;;;;;;8.13;3.90;;;8.40;99.90;;;8.47;100.00;99964.53;5144741;28;20092;-71
2021/12/24 00:55:27;;;;;;;6.88;3.10;;;8.40;99.90;;;8.48;100.00;99968.94;5144973;28;20050;-71
2021/12/24 00:58:02;;;;;;;5.22;2.63;;;8.40;99.90;;;8.46;100.00;99968.84;5144659;28;20050;-70
2021/12/24 01:00:37;;;;;;;8.77;3.42;;;8.40;99.90;;;8.48;100.00;99972.41;5145689;28;20428;-70
2021/12/24 01:03:12;;;;;;;9.70;4.18;;;8.40;99.90;;;8.49;100.00;99973.28;5144870;28;20047;-70
2021/12/24 01:05:45;;;;;;;7.55;3.03;;;8.50;99.90;;;8.52;100.00;99978.56;5144725;28;20069;-70
2021/12/24 01:08:19;;;;;;;6.60;3.47;;;8.50;99.90;;;8.53;100.00;99981.19;5144573;28;20472;-70
2021/12/24 01:10:56;;;;;;;7.40;2.90;;;8.50;99.90;;;8.53;100.00;99981.19;5144292;28;20061;-70
2021/12/24 01:13:29;;;;;;;8.05;3.70;;;8.50;99.90;;;8.54;100.00;99988.16;5144367;28;20054;-70
2021/12/24 01:16:02;;;;;;;5.78;2.92;;;8.50;99.90;;;8.52;100.00;99984.63;5144360;28;20057;-71
2021/12/24 01:18:43;;;;;;;7.13;3.20;;;8.50;99.90;;;8.50;100.00;99991.50;5143949;28;20134;-70
2021/12/24 01:21:28;;;;;;;;;;;8.50;99.90;;;8.51;100.00;99993.25;5145028;28;20055;-70
2021/12/24 01:24:04;;;;;;;7.55;2.90;;;8.50;99.90;;;8.55;100.00;99989.06;5144586;28;19922;-70
2021/12/24 01:26:42;;;;;;;5.25;2.30;;;8.50;99.90;;;8.56;100.00;99985.63;5144546;28;20501;-70
2021/12/24 01:38:09;;;;;;;5.00;2.35;;;8.60;99.90;;;8.69;100.00;99987.75;5145500;28;20575;-70
2021/12/24 01:40:53;;;;;;;4.43;2.20;;;8.60;99.90;;;8.77;100.00;99986.25;5144314;28;20098;-70
2021/12/24 01:43:26;;;;;;;3.60;2.03;;;8.70;99.90;;;8.85;100.00;99978.66;5143968;28;20055;-70
2021/12/24 01:46:03;;;;;;;3.80;2.00;;;8.80;99.90;;;8.84;100.00;99982.97;5144173;28;20051;-70
2021/12/24 01:48:35;;;;;;;3.67;1.73;;;8.80;99.90;;;8.85;100.00;99979.53;5144367;28;20061;-70
2021/12/24 01:51:07;;;;;;;3.58;1.90;;;8.80;99.90;;;8.86;100.00;99968.28;5144313;28;20054;-70
2021/12/24 01:53:39;;;;;;;2.15;1.45;;;8.80;99.90;;;8.88;100.00;99969.25;5144076;28;20393;-70
2021/12/24 01:56:13;;;;;;;3.67;1.83;;;8.80;99.90;;;8.93;100.00;99965.06;5145027;28;20506;-70
2021/12/24 01:58:45;;;;;;;2.03;1.50;;;8.80;99.90;;;8.94;100.00;99959.03;5144872;28;20055;-70
2021/12/24 02:01:17;;;;;;;2.50;1.63;;;8.80;99.90;;;8.91;100.00;99964.13;5143886;28;20046;-70
2021/12/24 02:03:49;;;;;;;4.07;1.70;;;8.90;99.90;;;8.91;100.00;99960.66;5144885;28;20080;-70
2021/12/24 02:06:21;;;;;;;4.35;2.03;;;8.90;99.90;;;8.92;100.00;99960.69;5147950;28;20410;-70
2021/12/24 02:08:53;;;;;;;2.72;1.50;;;8.90;99.90;;;8.93;100.00;99964.16;5147693;28;20049;-70
2021/12/24 02:11:27;;;;;;;4.40;1.70;;;8.90;99.90;;;8.92;100.00;99958.06;5148215;28;20051;-70
2021/12/24 02:14:02;;;;;;;2.50;1.55;;;8.80;99.90;;;8.89;100.00;99952.81;5147895;28;20526;-70
2021/12/24 02:16:47;;;;;;;4.20;1.80;;;8.90;99.90;;;8.89;99.67;99965.81;5148144;28;20078;-71
2021/12/24 02:28:22;;;;;;;4.28;1.65;;;8.80;99.90;;;8.87;98.57;99967.50;5147661;28;20058;-71
2021/12/24 02:30:55;;;;;;;3.80;1.67;;;8.80;99.90;;;8.87;98.75;99967.50;5147777;28;20047;-70
2021/12/24 02:33:27;;;;;;;3.33;1.48;;;8.90;99.90;;;8.91;99.06;99963.25;5147440;28;20053;-71
2021/12/24 02:35:59;;;;;;;2.90;1.35;;;8.80;99.90;;;8.90;98.85;99967.56;5147307;28;20050;-70
2021/12/24 02:38:32;;;;;;;3.50;1.52;;;8.80;99.90;;;8.89;98.91;99955.41;5147694;28;20058;-71
2021/12/24 02:41:05;;;;;;;2.88;1.33;;;8.90;99.90;;;8.90;98.52;99953.69;5147328;28;20125;-71
2021/12/24 02:43:39;;;;;;;4.30;1.50;;;8.90;99.90;;;8.89;98.17;99945.00;5147442;28;20050;-71
2021/12/24 02:46:15;;;;;;;3.72;1.55;;;8.80;99.90;;;8.90;97.84;99944.16;5147296;28;20073;-70
2021/12/24 02:54:26;;;;;;;3.22;2.10;;;8.80;99.90;;;8.96;98.03;99931.34;5147037;28;20058;-70
2021/12/24 02:57:07;;;;;;;2.22;1.35;;;8.90;99.90;;;8.97;97.98;99933.09;5147159;28;20057;-71
2021/12/24 02:59:47;;;;;;;3.10;1.60;;;8.90;99.90;;;9.00;97.63;99936.59;5146910;28;20054;-70
2021/12/24 03:02:19;;;;;;;2.22;1.33;;;8.90;99.90;;;9.05;97.47;99924.63;5146834;28;20058;-70
2021/12/24 03:04:51;;;;;;;3.38;1.65;;;9.00;99.90;;;9.06;97.85;99923.78;5146757;28;20061;-70
2021/12/24 03:07:23;;;;;;;2.25;1.65;;;9.00;99.90;;;9.06;98.18;99931.56;5146687;28;20054;-70
2021/12/24 03:09:58;;;;;;;4.05;1.83;;;9.00;99.90;;;9.05;98.54;99922.03;5147175;28;20122;-71
2021/12/24 03:12:31;;;;;;;3.83;1.77;;;9.00;99.90;;;9.05;98.57;99928.09;5146571;28;20061;-70
2021/12/24 03:15:04;;;;;;;6.75;2.13;;;9.00;99.90;;;9.06;98.54;99919.47;5145688;28;20054;-70
2021/12/24 03:17:36;;;;;;;5.25;1.90;;;9.00;99.90;;;9.05;98.78;99925.50;5146551;28;20062;-70
2021/12/24 03:20:10;;;;;;;7.38;2.05;;;9.00;99.90;;;9.07;99.00;99923.84;5146783;28;20134;-70
2021/12/24 03:22:49;;;;;;;5.13;1.80;;;9.00;99.90;;;9.11;98.70;99930.00;5146761;28;20073;-70
2021/12/24 03:25:22;;;;;;;6.38;2.13;;;9.00;99.90;;;9.12;98.96;99932.63;5146883;28;20061;-71
2021/12/24 03:27:54;;;;;;;4.10;1.73;;;9.10;99.90;;;9.11;98.73;99935.19;5146747;28;20054;-70
2021/12/24 03:30:26;;;;;;;5.90;1.90;;;9.00;99.90;;;9.11;98.45;99927.41;5146396;28;20079;-71
2021/12/24 03:32:58;;;;;;;4.68;2.00;;;9.10;99.90;;;9.10;98.44;99928.25;5146548;28;20054;-70
2021/12/24 03:35:30;;;;;;;6.38;2.38;;;9.10;99.90;;;9.07;98.76;99936.84;5146664;28;20513;-70
2021/12/24 03:38:02;;;;;;;3.10;1.65;;;9.00;99.90;;;9.10;98.50;99928.25;5146563;28;20166;-71
2021/12/24 03:40:36;;;;;;;4.63;1.48;;;9.10;99.90;;;9.11;98.35;99924.78;5146434;28;20492;-71
2021/12/24 03:43:08;;;;;;;7.95;2.25;;;9.00;99.90;;;9.11;98.64;99927.41;5146311;28;20481;-70
2021/12/24 03:45:47;;;;;;;3.67;1.70;;;9.00;99.90;;;9.09;99.03;99924.75;5146147;28;20054;-71
2021/12/24 03:48:24;;;;;;;6.22;1.90;;;9.00;99.90;;;9.05;98.88;99912.50;5146531;28;20078;-70
2021/12/24 03:51:03;;;;;;;4.95;1.98;;;9.00;99.90;;;9.06;98.70;99911.66;5146189;28;20053;-71
2021/12/24 03:56:26;;;;;;;4.18;2.13;;;9.00;99.90;;;9.05;99.32;99924.63;5146002;28;20500;-70
2021/12/24 03:58:59;;;;;;;3.95;2.05;;;9.00;99.90;;;9.05;99.52;99930.69;5146193;28;20050;-70
2021/12/24 04:01:31;;;;;;;7.13;2.55;;;9.00;99.90;;;9.06;99.98;99928.97;5146084;28;20047;-70
2021/12/24 04:04:04;;;;;;;5.80;2.35;;;9.00;99.90;;;9.10;100.00;99917.84;5145763;28;20047;-70
2021/12/24 04:06:36;;;;;;;3.78;2.00;;;9.00;99.90;;;9.08;100.00;99914.31;5145787;28;20055;-71
2021/12/24 04:09:10;;;;;;;5.22;2.13;;;9.00;99.90;;;9.06;100.00;99922.06;5146062;28;20057;-70
2021/12/24 04:11:43;;;;;;;4.78;2.25;;;9.00;99.90;;;9.07;100.00;99902.19;5145869;28;20042;-70
2021/12/24 04:14:15;;;;;;;5.03;2.42;;;9.00;99.90;;;9.09;100.00;99908.28;5145828;28;20047;-70
2021/12/24 04:16:47;;;;;;;5.03;2.67;;;9.00;99.90;;;9.11;100.00;99901.41;5145539;28;20055;-71
2021/12/24 04:19:36;;;;;;;8.02;2.80;;;9.00;99.90;;;9.09;100.00;99903.97;5145689;28;20061;-70
2021/12/24 04:24:59;;;;;;;5.43;2.38;;;9.10;99.90;;;9.09;100.00;99900.47;5145343;28;20053;-70
2021/12/24 04:27:32;;;;;;;4.88;2.47;;;9.10;99.90;;;9.09;100.00;99905.69;5145245;28;20085;-71
2021/12/24 04:30:10;;;;;;;5.07;2.72;;;9.00;99.90;;;9.07;100.00;99909.97;5145531;28;20047;-70
2021/12/24 04:32:56;;;;;;;5.22;2.10;;;9.00;99.90;;;9.08;100.00;99916.94;5145198;28;20137;-70
2021/12/24 04:35:40;;;;;;;3.15;1.70;;;9.10;99.90;;;9.09;100.00;99905.69;5145153;28;20050;-70
2021/12/24 04:52:30;;;;;;;6.82;2.40;;;9.10;99.90;;;9.18;99.20;99911.13;5144970;28;20058;-71
2021/12/24 05:03:37;;;;;;;10.05;3.17;;;9.20;99.90;;;9.29;98.29;99920.09;5144630;28;20058;-70
2021/12/24 05:06:14;;;;;;;10.40;3.25;;;9.20;99.90;;;9.25;98.45;99926.03;5144599;28;20054;-71
2021/12/24 05:08:51;;;;;;;9.80;3.47;;;9.20;99.90;;;9.21;98.39;99926.81;5144894;28;20150;-70
2021/12/24 05:11:24;;;;;;;7.28;3.10;;;9.20;99.90;;;9.20;98.50;99930.25;5144667;28;20043;-71
2021/12/24 05:13:56;;;;;;;9.02;3.05;;;9.20;99.90;;;9.20;98.62;99925.94;5144365;28;20050;-70
2021/12/24 05:16:41;;;;;;;9.93;3.67;;;9.20;99.90;;;9.20;98.50;99925.06;5144263;28;20060;-71
2021/12/24 05:22:03;;;;;;;8.93;3.47;;;9.20;99.90;;;9.22;97.93;99923.38;5144337;28;20066;-70
2021/12/24 05:24:35;;;;;;;5.30;2.53;;;9.20;99.90;;;9.23;97.47;99925.13;5144393;28;20051;-71
2021/12/24 05:27:07;;;;;;;3.28;1.90;;;9.20;99.90;;;9.26;96.69;99930.41;5144578;28;20057;-70
2021/12/24 05:29:39;;;;;;;7.72;2.53;;;9.20;99.90;;;9.21;95.48;99926.81;5144501;28;20051;-71
2021/12/24 05:32:12;;;;;;;6.88;2.53;;;9.20;99.90;;;9.22;95.01;99923.38;5144493;28;20046;-70
2021/12/24 05:34:44;;;;;;;8.07;2.85;;;9.20;99.90;;;9.19;94.95;99928.47;5144047;28;20050;-71
2021/12/24 05:37:16;;;;;;;7.78;3.13;;;9.20;99.90;;;9.22;94.82;99941.56;5144374;28;20050;-71
2021/12/24 05:39:48;;;;;;;8.98;3.47;;;9.10;99.90;;;9.24;95.11;99939.88;5143635;28;20047;-70
2021/12/24 05:42:22;;;;;;;11.25;3.67;;;9.10;99.90;;;9.22;95.49;99936.38;5144530;28;20051;-70
2021/12/24 05:45:00;;;;;;;8.10;3.75;;;9.20;99.90;;;9.27;95.74;99945.19;5143958;28;20058;-70
2021/12/24 05:47:34;;;;;;;8.35;3.72;;;9.20;99.90;;;9.28;95.56;99946.06;5144377;28;20074;-70
2021/12/24 05:50:09;;;;;;;12.23;4.55;;;9.20;99.90;;;9.29;95.42;99950.41;5144320;28;20065;-70
2021/12/24 05:52:41;;;;;;;9.23;3.08;;;9.20;99.90;;;9.30;95.58;99959.97;5143890;28;20055;-70
2021/12/24 05:55:13;;;;;;;13.07;4.03;;;9.20;99.90;;;9.31;95.56;99956.53;5144156;28;20420;-70
2021/12/24 05:57:45;;;;;;;10.55;4.18;;;9.30;99.90;;;9.30;95.38;99955.66;5143943;28;20051;-70
2021/12/24 06:00:17;;;;;;;10.43;3.75;;;9.20;99.90;;;9.31;95.43;99960.00;5144161;28;20057;-71
2021/12/24 06:02:51;;;;;;;7.53;3.15;;;9.20;99.90;;;9.30;95.56;99963.44;5144191;28;20541;-71
2021/12/24 06:05:23;;;;;;;10.18;3.47;;;9.20;99.90;;;9.31;95.37;99954.81;5199524;23;20042;-73
2021/12/24 06:07:55;;;;;;;7.80;3.35;;;9.30;99.90;;;9.31;94.89;99960.00;5138166;28;20137;-74
2021/12/24 06:10:28;;;;;;;8.10;3.38;;;9.20;99.90;;;9.30;94.67;99953.03;5143975;28;20057;-74
2021/12/24 06:13:02;;;;;;;9.82;4.38;;;9.20;99.90;;;9.29;94.77;99956.50;5143627;28;20364;-74
2021/12/24 06:15:42;;;;;;;11.50;4.28;;;9.20;99.90;;;9.30;95.04;99960.84;5143511;28;20415;-74
2021/12/24 06:18:23;;;;;;;6.82;3.47;;;9.20;99.90;;;9.29;95.28;99960.81;5146153;28;20051;-74
2021/12/24 06:21:00;;;;;;;15.18;4.45;;;9.30;99.90;;;9.27;95.17;99947.78;5143479;28;20051;-73
2021/12/24 06:23:34;;;;;;;8.75;3.28;;;9.20;99.90;;;9.25;95.02;99957.25;5143731;28;20511;-74
2021/12/24 06:26:08;;;;;;;13.18;4.80;;;9.20;99.90;;;9.25;94.84;99960.72;5143399;28;20050;-74
2021/12/24 06:28:41;;;;;;;10.75;4.00;;;9.20;99.90;;;9.25;95.26;99955.50;5143501;28;20134;-74
2021/12/24 06:31:13;;;;;;;9.10;3.78;;;9.20;99.90;;;9.24;95.60;99965.88;5144117;28;20334;-74
2021/12/24 06:33:46;;;;;;;5.90;3.17;;;9.20;99.90;;;9.22;95.68;99955.44;5143248;28;20051;-73
2021/12/24 06:36:18;;;;;;;10.18;3.45;;;9.20;99.90;;;9.20;95.47;99956.25;5146807;28;20114;-74
2021/12/24 06:38:50;;;;;;;10.15;4.60;;;9.20;99.90;;;9.20;95.48;99962.34;5143570;28;20057;-74
2021/12/24 06:41:22;;;;;;;11.13;4.93;;;9.20;99.90;;;9.20;95.76;99958.84;5143543;28;20050;-74
2021/12/24 06:43:54;;;;;;;8.93;3.63;;;9.10;99.90;;;9.21;95.96;99958.03;5142998;28;20057;-74
2021/12/24 06:46:27;;;;;;;11.90;4.00;;;9.20;99.90;;;9.21;95.78;99945.00;5143577;28;20046;-74
2021/12/24 06:49:00;;;;;;;10.18;4.00;;;9.20;99.90;;;9.20;95.90;99951.06;5143863;28;20137;-74
2021/12/24 06:51:32;;;;;;;11.20;3.95;;;9.10;99.90;;;9.21;96.14;99947.63;5145935;28;20051;-73
2021/12/24 06:54:05;;;;;;;12.48;4.28;;;9.20;99.90;;;9.19;96.33;99944.06;5146576;28;20054;-73
2021/12/24 06:56:37;;;;;;;8.95;3.88;;;9.10;99.90;;;9.20;96.17;99943.25;5150021;28;20059;-73
2021/12/24 06:59:09;;;;;;;10.98;4.07;;;9.10;99.90;;;9.19;96.06;99939.78;5147000;28;20051;-74
2021/12/24 07:01:42;;;;;;;11.00;4.18;;;9.20;99.90;;;9.15;96.25;99937.06;5147213;28;20496;-74
2021/12/24 07:04:15;;;;;;;8.25;3.50;;;9.10;99.90;;;9.17;96.24;99937.97;5146662;28;20043;-74
2021/12/24 07:06:47;;;;;;;10.93;4.53;;;9.20;99.90;;;9.20;96.14;99940.66;5146259;28;20146;-74
2021/12/24 07:09:19;;;;;;;10.10;4.30;;;9.20;99.90;;;9.21;96.03;99947.63;5146741;28;20057;-74
2021/12/24 07:11:51;;;;;;;8.75;3.75;;;9.20;99.90;;;9.19;96.10;99944.97;5146994;28;20082;-74
2021/12/24 07:14:24;;;;;;;12.05;4.20;;;9.20;99.90;;;9.21;96.36;99950.22;5146324;28;20053;-74
2021/12/24 07:16:56;;;;;;;11.70;4.22;;;9.20;99.90;;;9.21;96.60;99953.69;5146745;28;20211;-74
2021/12/24 07:19:29;;;;;;;10.02;3.92;;;9.20;99.90;;;9.23;96.60;99954.59;5146852;28;20445;-74
2021/12/24 07:22:02;;;;;;;10.93;4.13;;;9.20;99.90;;;9.25;96.75;99950.31;5146347;28;20511;-74
2021/12/24 07:24:34;;;;;;;11.40;3.58;;;9.20;99.90;;;9.28;96.67;99954.75;5145969;28;20054;-74
2021/12/24 07:27:07;;;;;;;9.85;3.70;;;9.20;99.90;;;9.30;96.78;99950.44;5146555;28;20058;-75
2021/12/24 07:29:40;;;;;;;11.77;4.35;;;9.20;99.90;;;9.32;96.61;99966.97;5146155;28;20043;-74
2021/12/24 07:32:12;;;;;;;12.95;4.35;;;9.30;99.90;;;9.32;96.71;99961.75;5146239;28;20431;-74
2021/12/24 07:34:45;;;;;;;10.65;4.10;;;9.30;99.90;;;9.36;96.58;99974.03;5146182;28;20503;-74
2021/12/24 07:37:17;;;;;;;10.02;4.03;;;9.30;99.90;;;9.38;96.33;99981.84;5145953;28;20050;-74
2021/12/24 07:39:49;;;;;;;10.10;3.85;;;9.30;99.90;;;9.40;96.54;99998.41;5146448;28;20047;-74
2021/12/24 07:42:22;;;;;;;8.48;4.15;;;9.40;99.90;;;9.40;96.41;99980.19;5146031;28;20053;-75
2021/12/24 07:44:54;;;;;;;10.65;4.47;;;9.40;99.90;;;9.40;96.33;99986.28;5146000;28;20054;-74
2021/12/24 07:47:33;;;;;;;8.60;3.70;;;9.40;99.90;;;9.42;96.44;99984.59;5145927;28;20046;-74
2021/12/24 07:51:56;;;;;;;9.90;4.13;;;9.40;99.90;;;9.45;96.28;99992.50;5145926;28;20051;-74
2021/12/24 07:53:13;;;;;;;8.40;4.07;;;9.40;99.90;;;9.45;96.49;99989.88;5145532;28;20097;-74
2021/12/24 07:55:45;;;;;;;12.98;4.28;;;9.40;99.90;;;9.43;96.24;99990.66;5145535;28;20054;-74
2021/12/24 07:58:18;;;;;;;10.52;4.45;;;9.40;99.90;;;9.44;96.27;99993.31;5146177;28;20684;-74
2021/12/24 08:00:51;;;;;;;11.32;4.03;;;9.40;99.90;;;9.45;96.24;99995.09;5145120;28;20057;-74
2021/12/24 08:03:27;;;;;;;8.23;3.67;;;9.40;99.90;;;9.44;96.33;99989.81;5145659;28;20051;-74
2021/12/24 08:06:00;;;;;;;9.48;4.07;;;9.40;99.90;;;9.43;96.37;99975.06;5145052;28;20482;-74
2021/12/24 08:08:32;;;;;;;10.07;3.92;;;9.40;99.90;;;9.44;96.47;99977.69;5145456;28;20065;-74
2021/12/24 08:11:04;;;;;;;9.60;4.10;;;9.40;99.90;;;9.45;96.37;99979.47;5145459;28;20049;-74
2021/12/24 08:13:36;;;;;;;9.18;3.90;;;9.40;99.90;;;9.45;96.40;99976.88;5144985;28;20057;-74
2021/12/24 08:16:08;;;;;;;11.27;3.45;;;9.40;99.90;;;9.46;96.63;99975.16;5145305;28;20053;-74
2021/12/24 08:18:43;;;;;;;8.63;3.13;;;9.40;99.90;;;9.44;96.75;99977.69;5145513;28;20046;-74
2021/12/24 08:21:16;;;;;;;8.43;3.20;;;9.40;99.90;;;9.46;96.46;99981.25;5145103;28;20051;-74
2021/12/24 08:23:48;;;;;;;9.40;3.15;;;9.40;99.90;;;9.47;96.24;99985.59;5144609;28;20050;-74
2021/12/24 08:26:22;;;;;;;12.82;4.30;;;9.40;99.90;;;9.51;96.19;99986.53;5145372;28;20073;-74
2021/12/24 08:28:54;;;;;;;11.32;3.90;;;9.50;99.90;;;9.51;96.42;99984.81;5145214;28;20055;-74
2021/12/24 08:31:26;;;;;;;8.20;3.25;;;9.50;99.90;;;9.50;96.29;99980.47;5145169;28;20476;-74
2021/12/24 08:33:58;;;;;;;10.18;4.28;;;9.50;99.90;;;9.50;96.17;99972.66;5144985;28;20046;-74
2021/12/24 08:36:32;;;;;;;10.55;3.70;;;9.40;99.90;;;9.50;96.06;99977.84;5144629;28;20415;-74
2021/12/24 08:39:06;;;;;;;13.45;4.10;;;9.50;99.90;;;9.55;95.75;99975.38;5144426;28;20054;-74
2021/12/24 08:41:38;;;;;;;11.50;4.28;;;9.50;99.90;;;9.55;95.50;99958.91;5134540;28;20051;-74
2021/12/24 08:44:10;;;;;;;12.40;4.47;;;9.50;99.90;;;9.56;95.80;99965.84;5122565;28;20047;-74
2021/12/24 08:46:42;;;;;;;10.63;4.30;;;9.50;99.90;;;9.56;95.74;99964.13;5124672;28;20053;-74
2021/12/24 08:49:14;;;;;;;7.55;3.22;;;9.50;99.90;;;9.60;95.85;99957.28;5124764;28;20137;-74
2021/12/24 08:51:48;;;;;;;7.85;3.78;;;9.50;99.90;;;9.61;95.73;99964.25;5124909;28;20413;-71
2021/12/24 08:54:21;;;;;;;10.40;3.75;;;9.50;99.90;;;9.62;95.71;99961.69;5125160;28;20051;-73
2021/12/24 08:56:54;;;;;;;10.48;4.07;;;9.50;99.90;;;9.64;95.68;99948.72;5125212;28;20051;-74
2021/12/24 08:59:26;;;;;;;9.65;3.22;;;9.60;99.90;;;9.65;95.60;99942.66;5125182;28;20055;-73
2021/12/24 09:01:58;;;;;;;8.23;3.13;;;9.60;99.90;;;9.66;95.36;99934.03;5125242;28;20503;-73
2021/12/24 09:04:31;;;;;;;12.25;4.82;;;9.60;99.90;;;9.66;94.99;99937.50;5125087;28;20073;-74
2021/12/24 09:07:05;;;;;;;5.80;3.38;;;9.60;99.90;;;9.66;94.96;99934.03;5125000;29;20512;-73
2021/12/24 09:09:37;;;;;;;8.75;3.58;;;9.60;99.90;;;9.66;94.64;99931.44;5125913;28;20051;-71
2021/12/24 09:12:10;;;;;;;9.73;3.72;;;9.60;99.90;;;9.67;94.46;99930.59;5125473;28;20047;-71
2021/12/24 09:14:42;;;;;;;11.75;3.60;;;9.60;99.90;;;9.68;94.35;99929.75;5124223;28;20495;-74
2021/12/24 09:17:14;;;;;;;9.35;3.33;;;9.60;99.90;;;9.67;94.47;99922.78;5125186;28;20050;-74
2021/12/24 09:19:51;;;;;;;8.55;3.33;;;9.60;99.90;;;9.69;94.34;99931.50;5124860;29;20055;-73
2021/12/24 09:22:30;;;;;;;9.05;3.58;;;9.60;99.90;;;9.67;94.27;99928.84;5124863;28;20273;-71
2021/12/24 09:25:02;;;;;;;8.82;3.10;;;9.60;99.90;;;9.68;94.21;99937.53;5124386;29;20054;-72
2021/12/24 09:27:34;;;;;;;9.30;3.42;;;9.60;99.90;;;9.67;94.06;99939.28;5124469;28;20055;-71
2021/12/24 09:30:08;;;;;;;7.88;3.15;;;9.60;99.90;;;9.70;93.94;99938.44;5124347;28;20055;-71
2021/12/24 09:32:41;;;;;;;11.50;3.80;;;9.60;99.90;;;9.75;93.77;99934.25;5124881;29;20047;-71
2021/12/24 09:35:13;;;;;;;11.55;3.95;;;9.60;99.90;;;9.74;93.75;99946.38;5125063;28;20404;-71
2021/12/24 09:37:48;;;;;;;9.00;3.65;;;9.70;99.90;;;9.76;93.74;99936.88;5124942;28;20055;-71
2021/12/24 09:40:21;;;;;;;12.23;3.58;;;9.70;99.90;;;9.76;93.74;99936.88;5124580;28;20085;-72
2021/12/24 09:42:53;;;;;;;10.65;2.97;;;9.70;99.90;;;9.79;93.64;99936.09;5124304;28;20047;-70
2021/12/24 09:45:25;;;;;;;10.48;3.67;;;9.70;99.90;;;9.79;93.39;99926.56;5124078;28;20047;-71
2021/12/24 09:47:57;;;;;;;11.93;3.63;;;9.70;99.90;;;9.81;93.45;99916.19;5124168;28;20051;-71
2021/12/24 09:50:29;;;;;;;7.55;2.63;;;9.70;99.90;;;9.83;93.19;99917.09;5124464;28;20141;-71
2021/12/24 09:53:03;;;;;;;11.13;3.60;;;9.70;99.90;;;9.84;93.02;99921.44;5124064;28;20047;-71
2021/12/24 09:55:35;;;;;;;8.50;3.38;;;9.70;99.90;;;9.85;92.77;99914.53;5124076;28;20395;-72
2021/12/24 09:58:07;;;;;;;11.00;3.55;;;9.70;99.90;;;9.85;92.66;99917.16;5124258;28;20073;-69
2021/12/24 10:00:40;;;;;;;11.27;3.78;;;9.70;99.90;;;9.87;92.69;99924.13;5124371;28;20409;-70
2021/12/24 10:03:28;;;;;;;10.93;3.60;;;9.80;99.90;;;9.91;92.26;99923.38;5123807;28;20547;-70
2021/12/24 10:06:01;;;;;;;14.55;3.30;;;9.80;99.90;;;9.98;91.64;99922.66;5124024;28;20137;-70
2021/12/24 10:08:34;;;;;;;11.82;3.55;;;9.80;99.90;;;9.95;91.61;99913.91;5124143;28;20074;-70
2021/12/24 10:11:11;;;;;;;8.65;2.88;;;9.90;99.90;;;9.92;91.64;99909.50;5124057;28;20057;-70
2021/12/24 10:13:46;;;;;;;7.97;2.83;;;9.80;99.90;;;9.93;91.33;99906.06;5124001;28;20055;-69
2021/12/24 10:16:22;;;;;;;8.10;2.72;;;9.80;99.90;;;9.93;90.90;99906.06;5123831;29;20110;-72
2021/12/24 10:18:57;;;;;;;10.35;3.10;;;9.80;99.90;;;9.97;89.90;99915.69;5123688;28;20496;-70
2021/12/24 10:21:33;;;;;;;7.93;3.15;;;9.80;99.90;;;9.98;88.89;99911.38;5123716;29;20058;-70
2021/12/24 10:24:14;;;;;;;10.93;3.00;;;9.80;99.90;;;9.99;89.11;99906.19;5123980;28;20492;-72
2021/12/24 10:26:49;;;;;;;12.85;3.40;;;9.90;99.90;;;10.04;89.40;99914.09;5127119;29;20047;-69
2021/12/24 10:29:28;;;;;;;6.55;2.50;;;9.90;99.90;;;10.06;89.15;99918.50;5127552;28;20519;-69
2021/12/24 10:32:11;;;;;;;9.20;2.92;;;9.90;99.90;;;10.07;88.99;99909.84;5126872;29;20051;-69
2021/12/24 10:34:45;;;;;;;6.07;2.03;;;10.00;99.90;;;10.11;88.43;99915.16;5127351;28;20055;-71
2021/12/24 10:37:22;;;;;;;9.50;3.08;;;10.00;99.90;;;10.18;88.21;99914.44;5127282;28;20485;-69
2021/12/24 10:39:58;;;;;;;7.00;2.40;;;10.00;99.90;;;10.27;87.98;99904.25;5126181;28;20051;-70
2021/12/24 10:42:33;;;;;;;9.65;2.90;;;10.10;99.90;;;10.35;87.79;99892.25;5126762;29;20051;-70
2021/12/24 10:45:08;;;;;;;9.20;2.58;;;10.10;99.90;;;10.50;87.70;99890.00;5127259;28;20655;-69
2021/12/24 10:47:41;;;;;;;6.57;3.00;;;10.20;99.90;;;10.64;87.43;99897.22;5126459;28;20137;-70
2021/12/24 10:50:28;;;;;;;5.65;2.85;;;10.30;99.90;;;10.79;86.93;99892.28;5123626;29;20113;-69
2021/12/24 10:55:55;;;;;;;5.80;2.30;;;10.50;99.90;;;10.86;87.17;99889.81;5126535;28;20062;-69
2021/12/24 10:58:30;;;;;;;8.27;2.65;;;10.60;99.90;;;10.90;86.22;99901.22;5127174;28;20402;-69
2021/12/24 11:01:04;;;;;;;8.23;3.20;;;10.70;99.90;;;10.98;84.82;99890.91;5126958;29;20098;-69
2021/12/24 11:03:36;;;;;;;10.98;2.90;;;10.70;99.90;;;10.91;84.63;99891.66;5126445;28;20051;-69
2021/12/24 11:06:12;;;;;;;8.75;2.95;;;10.70;99.90;;;10.99;84.27;99880.50;5126348;28;20058;-70
2021/12/24 11:08:45;;;;;;;10.88;2.80;;;10.80;99.90;;;10.88;84.97;99876.81;5126489;28;20055;-69
2021/12/24 11:11:18;;;;;;;9.73;3.78;;;10.80;99.90;;;10.87;85.01;99890.69;5126735;28;20416;-69
2021/12/24 11:13:52;;;;;;;9.27;2.88;;;10.80;99.90;;;10.83;85.14;99895.00;5126280;28;20047;-70
2021/12/24 11:16:24;;;;;;;8.65;3.33;;;10.80;99.90;;;10.87;85.01;99891.56;5126293;28;20050;-69
2021/12/24 11:19:00;;;;;;;11.80;3.15;;;10.70;99.90;;;10.82;85.06;99894.94;5126121;28;20058;-70
2021/12/24 11:21:33;;;;;;;12.77;3.45;;;10.70;99.90;;;10.84;85.25;99901.97;5126618;28;20460;-72
2021/12/24 11:24:06;;;;;;;11.20;3.10;;;10.80;99.90;;;10.89;85.00;99899.44;5126113;29;20047;-70
2021/12/24 11:26:50;;;;;;;11.80;3.03;;;10.70;99.90;;;10.96;85.29;99900.44;5126324;28;20059;-71
2021/12/24 11:29:22;;;;;;;8.80;3.17;;;10.80;99.90;;;10.93;85.11;99902.97;5126338;28;20062;-71
2021/12/24 11:31:56;;;;;;;10.18;3.38;;;10.80;99.90;;;10.97;85.05;99903.06;5126111;29;20044;-70
2021/12/24 11:34:28;;;;;;;9.13;2.80;;;10.80;99.90;;;10.98;85.07;99902.22;5125760;28;20051;-71
2021/12/24 11:37:02;;;;;;;12.85;3.05;;;10.80;99.90;;;11.00;84.80;99894.41;5125063;28;20057;-72
2021/12/24 11:39:34;;;;;;;11.20;3.30;;;10.80;99.90;;;11.06;84.96;99889.31;5126072;28;20051;-70
2021/12/24 11:42:10;;;;;;;9.30;2.80;;;10.90;99.90;;;11.16;83.92;99882.56;5126502;28;20051;-70
2021/12/24 11:44:43;;;;;;;10.60;3.50;;;11.00;99.90;;;11.27;83.77;99876.66;5126259;28;20457;-70
2021/12/24 11:47:15;;;;;;;6.63;2.38;;;11.00;99.90;;;11.27;83.11;99870.56;5125937;28;20058;-71
2021/12/24 11:49:48;;;;;;;10.35;2.95;;;11.10;99.90;;;11.44;82.30;99876.94;5125874;28;20058;-70
2021/12/24 11:52:20;;;;;;;12.15;3.30;;;11.20;99.90;;;11.46;81.88;99880.47;5125717;28;20049;-70
2021/12/24 11:54:54;;;;;;;9.55;2.65;;;11.20;99.90;;;11.34;81.86;99888.06;5125341;29;20047;-70
2021/12/24 11:57:28;;;;;;;9.10;3.10;;;11.20;99.90;;;11.27;82.22;99875.78;5125774;28;20054;-70
2021/12/24 12:00:11;;;;;;;7.95;2.83;;;11.20;99.90;;;11.25;82.05;99874.88;5125580;28;20089;-70
2021/12/24 12:02:45;;;;;;;9.18;3.47;;;11.20;99.90;;;11.20;82.46;99869.56;5125347;28;20058;-70
2021/12/24 12:05:24;;;;;;;10.25;3.47;;;11.10;99.90;;;11.20;82.66;99871.31;5151631;23;21197;-82
2021/12/24 12:11:24;;;;;;;6.88;2.80;;;11.10;99.90;;;11.17;82.51;99858.22;5104316;29;20044;-71
2021/12/24 12:14:01;;;;;;;11.82;2.85;;;11.10;99.90;;;11.17;82.11;99859.09;5106407;29;20456;-72